This is the latest recevied weather packets stored in our database for station/object IZ2MHJ-3. If no packets are shown the sender has not sent any weather packets the latest 1 day(s).
| Time | Temp. | Humidity | Pressure | Rain* | Wind** | Luminosity | Snow |
|---|---|---|---|---|---|---|---|
| 1777791871 | 21.67° C | 42% | 1021 hPa | - | - | - | - |
| 1777790671 | 19.44° C | 46% | 1021.3 hPa | - | - | - | - |
| 1777789470 | 19.44° C | 47% | 1021.2 hPa | - | - | - | - |
| 1777788270 | 17.22° C | 55% | 1021.3 hPa | - | - | - | - |
| 1777787070 | 16.11° C | 57% | 1021.3 hPa | - | - | - | - |
| 1777785869 | 15° C | 61% | 1021.3 hPa | - | - | - | - |
| 1777784669 | 13.33° C | 64% | 1021.4 hPa | - | - | - | - |
| 1777783469 | 12.78° C | 65% | 1021.3 hPa | - | - | - | - |
| 1777782269 | 12.22° C | 66% | 1021.3 hPa | - | - | - | - |
| 1777781068 | 12.22° C | 66% | 1021.2 hPa | - | - | - | - |
| 1777779868 | 12.22° C | 65% | 1021.3 hPa | - | - | - | - |
| 1777778668 | 12.78° C | 64% | 1021.3 hPa | - | - | - | - |
| 1777777467 | 12.78° C | 64% | 1021.3 hPa | - | - | - | - |
| 1777776267 | 12.78° C | 63% | 1021.4 hPa | - | - | - | - |
| 1777775067 | 13.33° C | 62% | 1021.5 hPa | - | - | - | - |
| 1777773866 | 13.33° C | 61% | 1021.6 hPa | - | - | - | - |
| 1777772666 | 13.33° C | 60% | 1021.6 hPa | - | - | - | - |
| 1777771466 | 13.33° C | 60% | 1021.7 hPa | - | - | - | - |
| 1777770265 | 13.33° C | 60% | 1021.8 hPa | - | - | - | - |
| 1777769065 | 13.89° C | 58% | 1021.9 hPa | - | - | - | - |
| 1777767865 | 13.89° C | 57% | 1022.2 hPa | - | - | - | - |
| 1777766665 | 14.44° C | 56% | 1022.4 hPa | - | - | - | - |
| 1777765464 | 15° C | 54% | 1022.5 hPa | - | - | - | - |
| 1777764264 | 15° C | 54% | 1022.5 hPa | - | - | - | - |
| 1777763064 | 15° C | 53% | 1022.7 hPa | - | - | - | - |
* Rain since midnight (hover to see other rain measurements)
** Current wind speed in m/s (hover to see current wind gust speed)